Time;durP1;ratioP1;P1;durP2;ratioP2;P2;SDS_P1;SDS_P2;PMS_P1;PMS_P2;Temp;Humidity;BMP_temperature;BMP_pressure;BME280_temperature;BME280_humidity;BME280_pressure;Samples;Min_cycle;Max_cycle;Signal;HPM_P1;HPM_P2
2021/03/16 00:00:07;;;;;;;5.57;4.83;;;;;;;;;;5000791;28;20233;-79
2021/03/16 00:02:33;;;;;;;6.23;5.30;;;;;;;;;;5017194;28;20226;-80
2021/03/16 00:04:58;;;;;;;5.60;4.73;;;;;;;;;;5017497;28;20484;-82
2021/03/16 00:07:23;;;;;;;7.23;5.60;;;;;;;;;;5016971;28;20222;-80
2021/03/16 00:09:49;;;;;;;5.83;4.83;;;;;;;;;;5017039;28;20211;-80
2021/03/16 00:12:14;;;;;;;4.60;4.00;;;;;;;;;;5017805;28;20245;-78
2021/03/16 00:14:39;;;;;;;5.50;4.07;;;;;;;;;;5018056;28;20237;-80
2021/03/16 00:17:05;;;;;;;5.33;4.07;;;;;;;;;;5018062;28;20488;-80
2021/03/16 00:19:30;;;;;;;4.97;4.47;;;;;;;;;;5016856;28;20219;-79
2021/03/16 00:21:55;;;;;;;6.60;4.20;;;;;;;;;;5017507;28;20254;-78
2021/03/16 00:24:21;;;;;;;5.70;5.10;;;;;;;;;;4999833;28;20600;-77
2021/03/16 00:26:46;;;;;;;5.50;4.80;;;;;;;;;;5017029;28;20293;-78
2021/03/16 00:29:12;;;;;;;5.90;4.87;;;;;;;;;;5015999;28;20496;-76
2021/03/16 00:31:37;;;;;;;5.23;4.70;;;;;;;;;;5016280;28;20269;-76
2021/03/16 00:34:02;;;;;;;4.70;4.30;;;;;;;;;;5017487;28;20615;-77
2021/03/16 00:36:28;;;;;;;5.10;4.60;;;;;;;;;;5016919;28;20273;-76
2021/03/16 00:38:53;;;;;;;4.70;4.30;;;;;;;;;;5016697;28;20226;-77
2021/03/16 00:41:18;;;;;;;6.40;4.20;;;;;;;;;;5017096;28;20242;-77
2021/03/16 00:43:44;;;;;;;6.70;4.97;;;;;;;;;;5016796;28;20564;-76
2021/03/16 00:46:09;;;;;;;6.23;5.03;;;;;;;;;;5017347;28;20242;-77
2021/03/16 00:48:35;;;;;;;6.13;4.37;;;;;;;;;;5018323;28;20207;-75
2021/03/16 00:51:00;;;;;;;5.57;4.20;;;;;;;;;;5030550;28;20214;-76
2021/03/16 00:53:25;;;;;;;4.40;4.00;;;;;;;;;;5020332;28;20252;-77
2021/03/16 00:55:50;;;;;;;5.00;4.10;;;;;;;;;;5016758;28;20449;-78
2021/03/16 00:58:24;;;;;;;4.60;4.20;;;;;;;;;;5016435;28;20230;-78
2021/03/16 01:00:49;;;;;;;7.40;4.80;;;;;;;;;;4999580;28;20600;-76
2021/03/16 01:03:14;;;;;;;5.67;4.60;;;;;;;;;;5019630;28;20458;-77
2021/03/16 01:05:39;;;;;;;5.20;4.70;;;;;;;;;;5036425;28;20202;-77
2021/03/16 01:08:05;;;;;;;5.43;4.93;;;;;;;;;;5035902;28;20214;-77
2021/03/16 01:10:30;;;;;;;5.93;4.20;;;;;;;;;;5036123;28;20218;-76
2021/03/16 01:12:55;;;;;;;6.97;4.70;;;;;;;;;;5036610;28;20222;-77
2021/03/16 01:15:21;;;;;;;7.37;5.03;;;;;;;;;;5035411;28;20214;-76
2021/03/16 01:17:46;;;;;;;6.33;5.73;;;;;;;;;;5020343;28;20276;-76
2021/03/16 01:20:15;;;;;;;5.70;4.97;;;;;;;;;;5017888;28;20215;-78
2021/03/16 01:22:40;;;;;;;6.00;4.90;;;;;;;;;;5017982;28;20219;-77
2021/03/16 01:25:07;;;;;;;5.80;5.20;;;;;;;;;;5016763;28;20462;-76
2021/03/16 01:27:32;;;;;;;5.67;5.17;;;;;;;;;;5016879;28;20302;-77
2021/03/16 01:29:57;;;;;;;6.80;5.90;;;;;;;;;;5000030;28;20779;-77
2021/03/16 01:32:23;;;;;;;5.80;5.30;;;;;;;;;;5015723;28;20233;-77
2021/03/16 01:34:48;;;;;;;6.40;5.53;;;;;;;;;;5016577;28;20214;-76
2021/03/16 01:37:13;;;;;;;6.53;5.50;;;;;;;;;;5015946;28;20246;-76
2021/03/16 01:39:38;;;;;;;7.93;6.00;;;;;;;;;;4999422;28;20230;-77
2021/03/16 01:42:05;;;;;;;10.53;6.77;;;;;;;;;;5015952;28;20241;-76
2021/03/16 01:44:30;;;;;;;9.90;6.77;;;;;;;;;;5016426;28;20222;-77
2021/03/16 01:46:56;;;;;;;7.27;6.43;;;;;;;;;;5016067;28;21061;-77
2021/03/16 01:49:21;;;;;;;8.47;7.13;;;;;;;;;;5015305;28;20223;-77
2021/03/16 01:51:46;;;;;;;7.10;6.20;;;;;;;;;;5016707;28;20245;-77
2021/03/16 01:54:12;;;;;;;11.10;7.20;;;;;;;;;;5015666;28;20492;-76
2021/03/16 01:56:38;;;;;;;7.43;6.73;;;;;;;;;;5015452;28;20218;-78
2021/03/16 01:59:04;;;;;;;7.77;5.90;;;;;;;;;;4999510;28;20580;-77
2021/03/16 02:01:29;;;;;;;6.13;5.40;;;;;;;;;;5015529;28;20530;-77
2021/03/16 02:03:54;;;;;;;7.63;5.63;;;;;;;;;;5003402;28;20231;-77
2021/03/16 02:06:30;;;;;;;6.23;5.60;;;;;;;;;;4996672;28;20223;-76
2021/03/16 02:09:08;;;;;;;7.50;5.60;;;;;;;;;;4996446;28;20215;-77
2021/03/16 02:11:40;;;;;;;7.30;5.30;;;;;;;;;;5012257;28;20701;-76
2021/03/16 02:14:12;;;;;;;6.10;5.07;;;;;;;;;;5016146;28;20545;-76
2021/03/16 02:17:12;;;;;;;7.23;5.60;;;;;;;;;;4999461;28;20736;-76
2021/03/16 02:19:52;;;;;;;6.07;4.97;;;;;;;;;;4999487;28;20522;-76
2021/03/16 02:22:19;;;;;;;7.53;5.63;;;;;;;;;;5000292;28;20474;-77
2021/03/16 02:25:03;;;;;;;5.50;4.77;;;;;;;;;;4998988;28;20450;-76
2021/03/16 02:27:44;;;;;;;6.67;5.47;;;;;;;;;;5015254;28;20439;-77
2021/03/16 02:30:10;;;;;;;5.20;4.70;;;;;;;;;;5007516;28;20524;-77
2021/03/16 02:32:36;;;;;;;5.10;4.60;;;;;;;;;;5002391;28;20453;-77
2021/03/16 02:35:04;;;;;;;8.17;6.27;;;;;;;;;;5018762;28;20508;-77
2021/03/16 02:37:33;;;;;;;8.17;4.50;;;;;;;;;;5020436;28;20902;-77
2021/03/16 02:39:58;;;;;;;6.93;4.70;;;;;;;;;;5018990;28;20533;-76
2021/03/16 02:42:24;;;;;;;4.97;4.47;;;;;;;;;;5018939;28;20564;-77
2021/03/16 02:44:51;;;;;;;5.93;5.20;;;;;;;;;;5018657;28;20550;-77
2021/03/16 02:47:19;;;;;;;7.40;4.67;;;;;;;;;;5018479;28;20465;-77
2021/03/16 02:49:46;;;;;;;5.33;4.33;;;;;;;;;;5018119;28;20450;-78
2021/03/16 02:52:12;;;;;;;4.87;3.93;;;;;;;;;;5019452;28;20454;-76
2021/03/16 02:54:38;;;;;;;6.13;4.40;;;;;;;;;;5017233;28;20477;-77
2021/03/16 02:57:05;;;;;;;4.27;3.90;;;;;;;;;;5018612;28;20457;-77
2021/03/16 02:59:30;;;;;;;4.33;3.67;;;;;;;;;;5017676;28;20461;-77
2021/03/16 03:01:56;;;;;;;5.10;4.60;;;;;;;;;;5018380;28;20527;-76
2021/03/16 03:04:23;;;;;;;5.67;3.90;;;;;;;;;;5018074;28;20473;-77
2021/03/16 03:06:49;;;;;;;4.33;3.93;;;;;;;;;;5001068;28;22539;-76
2021/03/16 03:09:15;;;;;;;5.70;4.60;;;;;;;;;;5002084;28;20558;-76
2021/03/16 03:11:40;;;;;;;5.10;4.53;;;;;;;;;;5018516;28;20215;-76
2021/03/16 03:14:07;;;;;;;4.73;4.30;;;;;;;;;;5018065;28;20537;-77
2021/03/16 03:16:32;;;;;;;5.00;4.50;;;;;;;;;;5001236;28;20214;-76
2021/03/16 03:18:58;;;;;;;7.87;4.67;;;;;;;;;;5001925;28;20508;-77
2021/03/16 03:21:33;;;;;;;4.70;4.30;;;;;;;;;;5018544;28;20298;-77
2021/03/16 03:24:08;;;;;;;4.73;4.33;;;;;;;;;;5016830;28;20272;-77
2021/03/16 03:26:56;;;;;;;4.87;4.30;;;;;;;;;;5001387;28;20524;-77
2021/03/16 03:29:24;;;;;;;9.20;3.97;;;;;;;;;;5017525;28;20927;-77
2021/03/16 03:31:49;;;;;;;4.90;4.40;;;;;;;;;;5001686;28;20525;-77
2021/03/16 03:34:17;;;;;;;5.93;4.83;;;;;;;;;;5001011;28;20831;-77
2021/03/16 03:36:43;;;;;;;5.63;5.10;;;;;;;;;;5017829;28;20525;-77
2021/03/16 03:39:09;;;;;;;5.60;4.73;;;;;;;;;;5017781;28;20533;-77
2021/03/16 03:41:35;;;;;;;9.23;4.63;;;;;;;;;;5017072;28;20227;-76
2021/03/16 03:44:02;;;;;;;5.03;4.40;;;;;;;;;;5001127;28;20467;-76
2021/03/16 03:46:29;;;;;;;6.67;4.07;;;;;;;;;;5000754;28;20603;-77
2021/03/16 03:48:56;;;;;;;7.93;6.13;;;;;;;;;;5016983;28;20543;-77
2021/03/16 03:51:21;;;;;;;6.70;4.00;;;;;;;;;;5000573;28;20460;-77
2021/03/16 03:53:48;;;;;;;6.37;3.80;;;;;;;;;;5016812;28;20528;-77
2021/03/16 03:56:14;;;;;;;6.13;4.30;;;;;;;;;;5001164;28;20237;-77
2021/03/16 03:58:40;;;;;;;5.80;4.17;;;;;;;;;;5017328;28;20503;-77
2021/03/16 04:01:06;;;;;;;8.60;4.37;;;;;;;;;;5017229;28;20468;-77
2021/03/16 04:03:33;;;;;;;6.70;3.80;;;;;;;;;;5000472;28;20230;-77
2021/03/16 04:05:59;;;;;;;3.93;3.33;;;;;;;;;;5017213;28;20214;-76
2021/03/16 04:08:24;;;;;;;4.53;3.97;;;;;;;;;;5016840;28;20464;-77
2021/03/16 04:10:49;;;;;;;4.53;3.80;;;;;;;;;;5017665;28;20462;-77
2021/03/16 04:13:15;;;;;;;7.17;4.00;;;;;;;;;;5017033;28;20277;-76
2021/03/16 04:15:41;;;;;;;4.30;3.60;;;;;;;;;;5016692;28;20214;-77
2021/03/16 04:18:06;;;;;;;5.70;3.37;;;;;;;;;;5017176;28;20623;-78
2021/03/16 04:20:31;;;;;;;5.07;3.70;;;;;;;;;;5016726;28;20301;-78
2021/03/16 04:22:57;;;;;;;5.10;3.40;;;;;;;;;;5017101;28;20315;-77
2021/03/16 04:25:22;;;;;;;6.87;3.73;;;;;;;;;;5016562;28;20342;-77
2021/03/16 04:27:47;;;;;;;5.23;3.03;;;;;;;;;;5017498;28;20217;-77
2021/03/16 04:30:13;;;;;;;4.80;3.50;;;;;;;;;;5000295;28;20303;-76
2021/03/16 04:32:38;;;;;;;5.60;3.70;;;;;;;;;;5016126;28;22466;-77
2021/03/16 04:35:04;;;;;;;5.27;3.70;;;;;;;;;;5016278;28;20230;-76
2021/03/16 04:37:29;;;;;;;7.40;3.57;;;;;;;;;;5016159;28;20296;-77
2021/03/16 04:39:54;;;;;;;5.03;3.70;;;;;;;;;;5016508;28;20365;-77
2021/03/16 04:42:20;;;;;;;4.80;4.10;;;;;;;;;;5016635;28;20232;-77
2021/03/16 04:44:45;;;;;;;6.60;4.00;;;;;;;;;;5017348;28;20224;-77
2021/03/16 04:47:10;;;;;;;5.17;4.20;;;;;;;;;;5016678;28;20234;-76
2021/03/16 04:49:36;;;;;;;3.80;3.33;;;;;;;;;;5017109;28;20223;-77
2021/03/16 04:52:01;;;;;;;6.47;3.87;;;;;;;;;;5000144;28;20245;-76
2021/03/16 04:54:27;;;;;;;3.30;3.00;;;;;;;;;;5015929;28;20473;-77
2021/03/16 04:56:52;;;;;;;5.53;4.47;;;;;;;;;;5016417;28;20242;-77
2021/03/16 04:59:17;;;;;;;6.03;3.10;;;;;;;;;;5016732;28;20249;-78
2021/03/16 05:01:42;;;;;;;4.77;3.30;;;;;;;;;;5016834;28;20223;-77
2021/03/16 05:04:08;;;;;;;5.50;3.80;;;;;;;;;;4999969;28;20596;-76
2021/03/16 05:06:33;;;;;;;4.03;3.27;;;;;;;;;;4999455;28;20226;-77
2021/03/16 05:08:58;;;;;;;3.47;3.07;;;;;;;;;;5016612;28;20226;-77
2021/03/16 05:11:24;;;;;;;4.63;3.17;;;;;;;;;;5016706;28;20309;-77
2021/03/16 05:13:50;;;;;;;5.00;3.33;;;;;;;;;;5016007;28;20222;-77
2021/03/16 05:16:15;;;;;;;6.43;3.67;;;;;;;;;;4999860;28;20222;-77
2021/03/16 05:18:41;;;;;;;7.77;3.13;;;;;;;;;;5016084;28;20226;-76
2021/03/16 05:21:06;;;;;;;3.53;3.10;;;;;;;;;;5017104;28;20229;-76
2021/03/16 05:23:31;;;;;;;4.83;3.23;;;;;;;;;;5016426;28;20234;-76
2021/03/16 05:25:56;;;;;;;5.93;3.47;;;;;;;;;;5016322;28;20250;-77
2021/03/16 05:28:22;;;;;;;3.77;2.60;;;;;;;;;;4999629;28;20493;-77
2021/03/16 05:30:47;;;;;;;4.73;3.60;;;;;;;;;;5015216;28;20317;-78
2021/03/16 05:33:12;;;;;;;5.43;3.33;;;;;;;;;;5015889;28;20242;-77
2021/03/16 05:35:38;;;;;;;4.20;3.10;;;;;;;;;;4999103;28;20218;-77
2021/03/16 05:38:03;;;;;;;6.00;3.30;;;;;;;;;;4999764;28;20241;-77
2021/03/16 05:40:31;;;;;;;5.93;2.97;;;;;;;;;;5015774;28;20226;-76
2021/03/16 05:42:56;;;;;;;5.77;3.10;;;;;;;;;;4999366;28;20619;-76
2021/03/16 05:45:22;;;;;;;4.57;2.10;;;;;;;;;;4999404;28;20470;-77
2021/03/16 05:47:48;;;;;;;3.10;2.23;;;;;;;;;;5001400;28;20221;-77
2021/03/16 05:50:15;;;;;;;2.57;2.10;;;;;;;;;;5003534;28;20225;-77
2021/03/16 05:52:41;;;;;;;5.17;2.27;;;;;;;;;;5019286;28;20840;-77
2021/03/16 05:55:07;;;;;;;4.60;2.57;;;;;;;;;;5019420;28;20592;-77
2021/03/16 05:57:32;;;;;;;2.37;2.17;;;;;;;;;;5018995;28;20264;-77
2021/03/16 05:59:58;;;;;;;3.93;2.37;;;;;;;;;;5019924;28;20546;-77
2021/03/16 06:02:23;;;;;;;3.77;2.90;;;;;;;;;;5019659;28;20236;-78
2021/03/16 06:04:48;;;;;;;3.63;3.20;;;;;;;;;;5018868;28;20218;-78
2021/03/16 06:07:17;;;;;;;3.03;2.73;;;;;;;;;;5019543;28;20218;-77
2021/03/16 06:09:43;;;;;;;3.93;2.90;;;;;;;;;;5019219;28;20227;-77
2021/03/16 06:12:10;;;;;;;4.30;3.83;;;;;;;;;;5019384;28;20497;-78
2021/03/16 06:14:36;;;;;;;3.63;3.20;;;;;;;;;;5002751;28;20743;-77
2021/03/16 06:17:02;;;;;;;4.57;3.00;;;;;;;;;;5021838;28;20493;-77
2021/03/16 06:19:29;;;;;;;3.80;3.03;;;;;;;;;;5023152;28;20461;-77
2021/03/16 06:22:04;;;;;;;3.70;2.97;;;;;;;;;;5019154;28;20480;-77
2021/03/16 06:24:30;;;;;;;3.73;2.60;;;;;;;;;;5018532;28;20483;-76
2021/03/16 06:26:56;;;;;;;5.13;3.10;;;;;;;;;;5018713;28;20477;-77
2021/03/16 06:29:21;;;;;;;5.07;2.50;;;;;;;;;;5018902;28;20233;-77
2021/03/16 06:31:47;;;;;;;3.57;3.17;;;;;;;;;;5018842;28;20519;-77
2021/03/16 06:34:23;;;;;;;6.60;3.17;;;;;;;;;;5019096;28;20231;-77
2021/03/16 06:36:57;;;;;;;5.23;3.73;;;;;;;;;;5001945;28;20541;-77
2021/03/16 06:39:23;;;;;;;4.40;3.23;;;;;;;;;;5019636;28;20527;-77
2021/03/16 06:41:48;;;;;;;5.10;4.23;;;;;;;;;;5019331;28;20537;-77
2021/03/16 06:44:18;;;;;;;5.60;3.70;;;;;;;;;;5019923;28;20230;-77
2021/03/16 06:46:52;;;;;;;9.00;4.30;;;;;;;;;;5018360;28;20669;-78
2021/03/16 06:49:18;;;;;;;4.00;3.10;;;;;;;;;;5019800;28;20485;-78
2021/03/16 06:51:45;;;;;;;4.10;3.70;;;;;;;;;;5018360;28;20902;-77
2021/03/16 06:54:12;;;;;;;6.17;4.53;;;;;;;;;;5018825;28;20903;-77
2021/03/16 06:56:38;;;;;;;5.90;4.10;;;;;;;;;;5019618;28;20550;-78
2021/03/16 06:59:07;;;;;;;4.17;3.30;;;;;;;;;;5019243;28;20572;-78
2021/03/16 07:01:34;;;;;;;5.90;3.50;;;;;;;;;;5018792;28;20222;-78
2021/03/16 07:04:10;;;;;;;6.03;3.33;;;;;;;;;;5019116;28;20451;-78
2021/03/16 07:06:36;;;;;;;6.13;3.10;;;;;;;;;;5018074;28;20484;-78
2021/03/16 07:09:01;;;;;;;6.10;3.90;;;;;;;;;;5002061;28;20457;-77
2021/03/16 07:11:28;;;;;;;4.13;3.77;;;;;;;;;;5018690;28;20257;-78
2021/03/16 07:13:55;;;;;;;4.97;3.70;;;;;;;;;;5017612;28;20253;-77
2021/03/16 07:16:20;;;;;;;8.90;4.10;;;;;;;;;;5001843;28;20457;-76
2021/03/16 07:18:45;;;;;;;4.53;3.83;;;;;;;;;;5018631;28;20469;-78
2021/03/16 07:21:18;;;;;;;3.53;2.90;;;;;;;;;;5001497;28;20637;-77
2021/03/16 07:23:54;;;;;;;4.40;3.80;;;;;;;;;;5001305;28;20222;-77
2021/03/16 07:26:20;;;;;;;6.10;3.53;;;;;;;;;;5018832;28;20458;-77
2021/03/16 07:28:46;;;;;;;4.17;3.40;;;;;;;;;;5000810;28;20516;-77
2021/03/16 07:31:12;;;;;;;4.30;3.37;;;;;;;;;;5017877;28;20482;-77
2021/03/16 07:33:38;;;;;;;4.53;3.03;;;;;;;;;;4994398;28;20472;-78
2021/03/16 07:36:04;;;;;;;7.87;4.13;;;;;;;;;;5017783;28;20522;-77
2021/03/16 07:38:29;;;;;;;3.83;3.30;;;;;;;;;;5002039;28;20215;-78
2021/03/16 07:40:55;;;;;;;4.87;3.70;;;;;;;;;;5017797;28;20244;-78
2021/03/16 07:44:00;;;;;;;3.80;2.77;;;;;;;;;;5001191;28;20229;-79
2021/03/16 07:46:45;;;;;;;3.73;3.23;;;;;;;;;;5005310;28;20453;-79
2021/03/16 07:49:13;;;;;;;6.50;4.00;;;;;;;;;;5001265;28;20497;-77
2021/03/16 07:51:43;;;;;;;7.13;3.70;;;;;;;;;;5017278;28;20474;-78
2021/03/16 07:54:09;;;;;;;5.00;3.57;;;;;;;;;;5017550;28;20477;-77
2021/03/16 07:56:36;;;;;;;5.57;4.00;;;;;;;;;;5017003;28;20467;-78
2021/03/16 07:59:03;;;;;;;7.47;5.40;;;;;;;;;;5000961;28;20789;-77
2021/03/16 08:01:28;;;;;;;7.93;4.63;;;;;;;;;;5016337;28;20769;-77
2021/03/16 08:04:07;;;;;;;5.77;5.17;;;;;;;;;;5017251;28;20470;-77
2021/03/16 08:06:34;;;;;;;4.70;3.70;;;;;;;;;;4994040;28;20299;-78
2021/03/16 08:09:00;;;;;;;5.43;3.60;;;;;;;;;;5017338;28;20469;-77
2021/03/16 08:11:39;;;;;;;6.43;4.03;;;;;;;;;;4999035;28;20919;-76
2021/03/16 08:14:05;;;;;;;8.37;4.20;;;;;;;;;;5000200;28;20523;-76
2021/03/16 08:16:39;;;;;;;5.43;4.27;;;;;;;;;;5017000;28;20466;-74
2021/03/16 08:19:08;;;;;;;5.47;3.93;;;;;;;;;;5000550;28;20781;-75
2021/03/16 08:21:38;;;;;;;7.03;4.40;;;;;;;;;;5013850;28;20447;-75
2021/03/16 08:24:10;;;;;;;5.10;3.53;;;;;;;;;;5016715;28;20494;-75
2021/03/16 08:26:43;;;;;;;5.60;3.27;;;;;;;;;;4999872;28;20457;-74
2021/03/16 08:29:09;;;;;;;4.57;3.60;;;;;;;;;;5016637;28;20449;-76
2021/03/16 08:31:35;;;;;;;5.80;3.60;;;;;;;;;;4999469;28;20461;-76
2021/03/16 08:34:01;;;;;;;6.40;4.93;;;;;;;;;;5017661;28;20362;-78
2021/03/16 08:36:27;;;;;;;10.97;3.87;;;;;;;;;;5016209;28;21198;-78
2021/03/16 08:38:53;;;;;;;4.23;3.70;;;;;;;;;;5016211;28;20907;-77
2021/03/16 08:41:18;;;;;;;9.50;4.20;;;;;;;;;;5016729;28;20217;-77
2021/03/16 08:43:48;;;;;;;5.20;3.57;;;;;;;;;;5015657;28;20459;-77
2021/03/16 08:46:14;;;;;;;7.27;3.87;;;;;;;;;;5016431;28;20224;-77
2021/03/16 08:48:41;;;;;;;4.60;3.50;;;;;;;;;;5016942;28;20540;-77
2021/03/16 08:51:07;;;;;;;7.60;4.20;;;;;;;;;;5002027;28;20680;-77
2021/03/16 08:53:32;;;;;;;3.90;3.30;;;;;;;;;;5019055;28;20476;-77
2021/03/16 08:55:58;;;;;;;5.93;3.10;;;;;;;;;;5004503;28;20599;-76
2021/03/16 08:58:26;;;;;;;4.00;3.10;;;;;;;;;;5023219;28;20473;-78
2021/03/16 09:00:52;;;;;;;5.13;3.00;;;;;;;;;;5008929;28;22201;-76
2021/03/16 09:03:27;;;;;;;5.43;3.20;;;;;;;;;;5028641;28;20713;-75
2021/03/16 09:05:52;;;;;;;4.77;3.00;;;;;;;;;;5016157;28;20225;-76
2021/03/16 09:08:20;;;;;;;4.20;3.40;;;;;;;;;;5016470;28;20465;-76
2021/03/16 09:10:47;;;;;;;4.30;3.57;;;;;;;;;;4999026;28;20214;-75
2021/03/16 09:13:13;;;;;;;5.07;4.10;;;;;;;;;;4999547;28;20508;-75
2021/03/16 09:15:38;;;;;;;6.00;4.07;;;;;;;;;;5014987;28;20465;-76
2021/03/16 09:18:05;;;;;;;6.87;3.77;;;;;;;;;;5015363;28;20222;-75
2021/03/16 09:20:35;;;;;;;6.20;3.90;;;;;;;;;;5014879;28;20245;-76
2021/03/16 09:23:06;;;;;;;3.80;3.17;;;;;;;;;;5005886;28;20454;-76
2021/03/16 09:25:33;;;;;;;4.60;2.90;;;;;;;;;;4999360;28;20477;-77
2021/03/16 09:28:00;;;;;;;5.27;3.37;;;;;;;;;;5000171;28;20459;-76
2021/03/16 09:30:35;;;;;;;7.00;4.20;;;;;;;;;;4997079;28;20452;-76
2021/03/16 09:33:03;;;;;;;4.10;3.30;;;;;;;;;;5008520;28;20520;-75
2021/03/16 09:35:33;;;;;;;3.40;3.00;;;;;;;;;;5003059;28;20496;-76
2021/03/16 09:37:58;;;;;;;6.50;3.20;;;;;;;;;;5020227;28;20450;-76
2021/03/16 09:40:42;;;;;;;6.07;2.90;;;;;;;;;;5025738;28;20519;-76
2021/03/16 09:43:20;;;;;;;3.47;3.00;;;;;;;;;;5016010;28;20543;-76
2021/03/16 09:46:06;;;;;;;7.37;3.40;;;;;;;;;;5014363;28;20463;-76
2021/03/16 09:48:31;;;;;;;9.13;4.00;;;;;;;;;;5005507;28;20592;-76
2021/03/16 09:50:58;;;;;;;4.90;3.83;;;;;;;;;;5020067;28;20824;-75
2021/03/16 09:53:31;;;;;;;4.43;2.73;;;;;;;;;;5019502;28;20551;-78
2021/03/16 09:55:57;;;;;;;2.80;2.30;;;;;;;;;;5027168;28;20459;-76
2021/03/16 09:58:24;;;;;;;3.93;2.43;;;;;;;;;;5000357;28;20485;-76
2021/03/16 10:00:50;;;;;;;4.23;2.60;;;;;;;;;;4999576;28;20735;-78
2021/03/16 10:03:17;;;;;;;2.67;2.47;;;;;;;;;;4995094;28;20448;-76
2021/03/16 10:05:43;;;;;;;5.53;2.80;;;;;;;;;;5004450;28;20471;-77
2021/03/16 10:08:08;;;;;;;5.90;2.90;;;;;;;;;;5021775;28;20507;-76
2021/03/16 10:10:37;;;;;;;3.23;2.63;;;;;;;;;;5025776;28;20586;-76
2021/03/16 10:13:07;;;;;;;4.20;2.70;;;;;;;;;;5010401;28;20243;-76
2021/03/16 10:15:37;;;;;;;3.13;2.33;;;;;;;;;;5024345;28;20435;-76
2021/03/16 10:18:13;;;;;;;4.90;3.00;;;;;;;;;;5019579;28;20828;-76
2021/03/16 10:20:41;;;;;;;4.80;2.60;;;;;;;;;;5003055;28;20765;-77
2021/03/16 10:23:09;;;;;;;3.70;3.20;;;;;;;;;;5021076;28;20447;-75
2021/03/16 10:25:35;;;;;;;4.33;2.40;;;;;;;;;;5003585;28;20465;-75
2021/03/16 10:28:06;;;;;;;6.57;3.53;;;;;;;;;;5020148;28;20457;-76
2021/03/16 10:30:32;;;;;;;2.60;2.20;;;;;;;;;;5023241;28;20463;-77
2021/03/16 10:32:58;;;;;;;5.47;3.50;;;;;;;;;;5004067;28;20465;-76
2021/03/16 10:35:23;;;;;;;10.53;6.93;;;;;;;;;;5002809;28;20476;-76
2021/03/16 10:37:48;;;;;;;5.77;4.00;;;;;;;;;;5019589;28;20216;-77
2021/03/16 10:40:14;;;;;;;5.07;3.50;;;;;;;;;;5053165;28;20227;-75
2021/03/16 10:42:39;;;;;;;4.40;3.00;;;;;;;;;;5034898;28;20485;-77
2021/03/16 10:45:05;;;;;;;5.40;4.00;;;;;;;;;;5022518;28;20245;-78
2021/03/16 10:47:30;;;;;;;5.23;3.27;;;;;;;;;;5025999;28;20217;-76
2021/03/16 10:49:55;;;;;;;3.23;2.50;;;;;;;;;;5011304;28;20289;-75
2021/03/16 10:52:21;;;;;;;3.80;2.77;;;;;;;;;;5024174;28;20217;-76
2021/03/16 10:54:49;;;;;;;3.73;2.10;;;;;;;;;;5020082;28;20234;-78
2021/03/16 10:57:15;;;;;;;4.60;2.63;;;;;;;;;;5025962;28;21179;-77
2021/03/16 10:59:40;;;;;;;3.50;2.13;;;;;;;;;;5022808;28;20514;-77
2021/03/16 11:02:06;;;;;;;3.10;1.80;;;;;;;;;;5038307;28;20312;-73
2021/03/16 11:04:33;;;;;;;5.20;1.90;;;;;;;;;;5037591;28;20218;-75
2021/03/16 11:06:58;;;;;;;2.83;2.13;;;;;;;;;;5037445;28;20494;-74
2021/03/16 11:09:23;;;;;;;2.40;1.70;;;;;;;;;;5038544;28;20539;-75
2021/03/16 11:11:49;;;;;;;4.90;2.17;;;;;;;;;;5037991;28;20229;-75
2021/03/16 11:14:14;;;;;;;1.70;1.43;;;;;;;;;;5037348;28;20219;-75
2021/03/16 11:16:40;;;;;;;4.07;2.53;;;;;;;;;;5038810;28;20614;-74
2021/03/16 11:19:05;;;;;;;8.03;5.30;;;;;;;;;;5037548;28;20599;-75
2021/03/16 11:21:31;;;;;;;4.70;2.90;;;;;;;;;;5021332;28;20308;-74
2021/03/16 11:23:56;;;;;;;4.20;2.73;;;;;;;;;;5017132;28;20223;-75
2021/03/16 11:26:21;;;;;;;4.80;3.00;;;;;;;;;;5001564;28;20218;-75
2021/03/16 11:28:47;;;;;;;5.37;2.63;;;;;;;;;;5017941;28;20218;-74
2021/03/16 11:31:12;;;;;;;2.43;2.20;;;;;;;;;;4990420;28;20217;-75
2021/03/16 11:33:38;;;;;;;2.50;2.10;;;;;;;;;;4999384;28;20230;-74
2021/03/16 11:36:04;;;;;;;6.10;2.90;;;;;;;;;;5007499;28;20220;-75
2021/03/16 11:38:29;;;;;;;4.30;2.30;;;;;;;;;;5018616;28;20218;-76
2021/03/16 11:40:55;;;;;;;4.00;2.00;;;;;;;;;;5017673;28;20222;-75
2021/03/16 11:43:21;;;;;;;4.87;2.83;;;;;;;;;;5018590;28;20313;-78
2021/03/16 11:45:46;;;;;;;3.20;2.33;;;;;;;;;;5014379;28;20461;-77
2021/03/16 11:48:12;;;;;;;6.80;3.93;;;;;;;;;;5018921;28;20472;-76
2021/03/16 11:50:37;;;;;;;6.30;2.63;;;;;;;;;;5019418;28;20221;-77
2021/03/16 11:53:03;;;;;;;5.80;3.50;;;;;;;;;;5028233;28;20230;-77
2021/03/16 11:55:29;;;;;;;6.13;3.00;;;;;;;;;;5033945;28;20274;-76
2021/03/16 11:57:54;;;;;;;4.80;2.63;;;;;;;;;;5030727;28;20460;-75
2021/03/16 12:00:19;;;;;;;3.90;2.90;;;;;;;;;;5030678;28;20279;-76
2021/03/16 12:02:45;;;;;;;3.10;2.13;;;;;;;;;;5034812;28;20206;-76
2021/03/16 12:05:11;;;;;;;2.47;2.20;;;;;;;;;;5034352;28;20226;-75
2021/03/16 12:07:36;;;;;;;3.90;3.50;;;;;;;;;;5035222;28;20220;-76
2021/03/16 12:10:03;;;;;;;4.60;4.03;;;;;;;;;;5049113;28;20216;-76
2021/03/16 12:12:28;;;;;;;3.00;2.37;;;;;;;;;;5046121;28;20221;-76
2021/03/16 12:14:54;;;;;;;2.40;2.00;;;;;;;;;;5045757;28;20468;-76
2021/03/16 12:17:19;;;;;;;40.60;29.20;;;;;;;;;;5011561;28;20238;-74
2021/03/16 12:19:45;;;;;;;4.07;2.70;;;;;;;;;;5001867;28;20270;-77
2021/03/16 12:22:10;;;;;;;3.83;2.90;;;;;;;;;;5000256;28;20240;-76
2021/03/16 12:24:35;;;;;;;2.67;2.33;;;;;;;;;;5006522;28;20226;-78
2021/03/16 12:27:01;;;;;;;2.97;2.50;;;;;;;;;;5020004;28;20217;-76
2021/03/16 12:29:26;;;;;;;4.10;2.70;;;;;;;;;;5025302;28;20219;-77
2021/03/16 12:31:52;;;;;;;3.53;2.30;;;;;;;;;;5028221;28;20217;-76
2021/03/16 12:34:17;;;;;;;3.30;2.37;;;;;;;;;;5021032;28;20595;-76
2021/03/16 12:36:42;;;;;;;3.30;3.00;;;;;;;;;;5032527;28;20215;-76
2021/03/16 12:39:08;;;;;;;6.07;3.00;;;;;;;;;;5017369;28;20472;-76
2021/03/16 12:41:34;;;;;;;5.70;3.33;;;;;;;;;;5017654;28;20240;-76
2021/03/16 12:43:59;;;;;;;5.10;3.23;;;;;;;;;;5023508;28;20214;-76
2021/03/16 12:46:27;;;;;;;4.17;3.40;;;;;;;;;;5038050;28;20456;-77
2021/03/16 12:48:52;;;;;;;5.50;3.03;;;;;;;;;;5037163;28;20248;-75
2021/03/16 12:51:18;;;;;;;3.83;3.47;;;;;;;;;;5016893;28;20450;-78
2021/03/16 12:53:44;;;;;;;3.37;2.90;;;;;;;;;;5017491;28;20230;-77
2021/03/16 12:56:12;;;;;;;5.17;2.30;;;;;;;;;;5016916;28;20227;-76
2021/03/16 12:58:37;;;;;;;3.67;2.60;;;;;;;;;;5016890;28;20498;-75
2021/03/16 13:01:03;;;;;;;3.60;2.40;;;;;;;;;;4999734;28;20447;-74
2021/03/16 13:03:28;;;;;;;3.13;2.43;;;;;;;;;;5016396;28;20252;-77
2021/03/16 13:05:53;;;;;;;3.10;2.80;;;;;;;;;;5017693;28;20270;-75
2021/03/16 13:08:19;;;;;;;3.13;2.80;;;;;;;;;;5015980;28;20226;-75
2021/03/16 13:10:44;;;;;;;5.97;3.00;;;;;;;;;;5000469;28;20226;-73
2021/03/16 13:13:09;;;;;;;4.40;2.93;;;;;;;;;;5016193;28;20225;-76
2021/03/16 13:15:35;;;;;;;3.80;2.20;;;;;;;;;;5018481;28;20233;-74
2021/03/16 13:18:01;;;;;;;3.70;2.10;;;;;;;;;;5034874;28;20225;-76
2021/03/16 13:20:26;;;;;;;3.20;2.20;;;;;;;;;;5035213;28;20457;-74
2021/03/16 13:22:51;;;;;;;2.83;2.20;;;;;;;;;;5033542;28;20246;-75
2021/03/16 13:25:17;;;;;;;4.00;2.20;;;;;;;;;;5029679;28;20223;-76
2021/03/16 13:27:42;;;;;;;3.07;1.87;;;;;;;;;;5029673;28;20217;-74
2021/03/16 13:30:08;;;;;;;4.00;2.23;;;;;;;;;;5020879;28;20479;-74
2021/03/16 13:32:33;;;;;;;3.53;1.80;;;;;;;;;;4982719;28;20670;-76
2021/03/16 13:34:59;;;;;;;1.90;1.70;;;;;;;;;;5015218;28;20237;-74
2021/03/16 13:37:24;;;;;;;3.00;2.20;;;;;;;;;;5017439;28;20236;-74
2021/03/16 13:39:49;;;;;;;2.33;1.90;;;;;;;;;;5016745;28;20227;-74
2021/03/16 13:42:15;;;;;;;3.80;1.90;;;;;;;;;;5016337;28;20220;-73
2021/03/16 13:44:40;;;;;;;3.77;2.30;;;;;;;;;;5016377;28;20230;-73
2021/03/16 13:47:06;;;;;;;3.47;2.10;;;;;;;;;;5016285;28;20215;-75
2021/03/16 13:49:31;;;;;;;3.73;2.10;;;;;;;;;;5016185;28;20254;-74
2021/03/16 13:51:57;;;;;;;2.83;2.17;;;;;;;;;;4994577;28;20247;-74
2021/03/16 13:54:23;;;;;;;2.33;2.03;;;;;;;;;;4996186;28;20317;-74
2021/03/16 13:56:48;;;;;;;2.47;1.90;;;;;;;;;;4997320;28;20285;-74
2021/03/16 13:59:13;;;;;;;3.23;2.17;;;;;;;;;;4995611;28;20223;-74
2021/03/16 14:01:39;;;;;;;3.77;2.50;;;;;;;;;;4997186;28;20238;-75
2021/03/16 14:04:04;;;;;;;4.33;2.70;;;;;;;;;;4996816;28;20361;-74
2021/03/16 14:06:30;;;;;;;7.57;3.13;;;;;;;;;;4996611;28;20222;-75
2021/03/16 14:08:56;;;;;;;4.17;2.60;;;;;;;;;;4998894;28;20223;-75
2021/03/16 14:11:21;;;;;;;6.43;2.53;;;;;;;;;;4999692;28;20449;-75
2021/03/16 14:13:46;;;;;;;4.13;2.10;;;;;;;;;;4999999;28;20251;-74
2021/03/16 14:16:12;;;;;;;5.77;2.40;;;;;;;;;;4999782;28;20383;-74
2021/03/16 14:18:37;;;;;;;3.77;2.17;;;;;;;;;;5000335;28;20220;-74
2021/03/16 14:21:03;;;;;;;4.00;2.33;;;;;;;;;;5015961;28;20595;-74
2021/03/16 14:23:28;;;;;;;3.63;2.37;;;;;;;;;;5014803;28;20539;-74
2021/03/16 14:25:53;;;;;;;2.60;2.10;;;;;;;;;;5002537;28;20231;-76
2021/03/16 14:28:19;;;;;;;2.70;2.33;;;;;;;;;;5002179;28;20239;-75
2021/03/16 14:30:45;;;;;;;2.53;2.33;;;;;;;;;;5013211;28;20219;-75
2021/03/16 14:33:13;;;;;;;2.67;1.90;;;;;;;;;;4999509;28;20488;-74
2021/03/16 14:35:38;;;;;;;2.80;2.50;;;;;;;;;;5009068;28;20461;-75
2021/03/16 14:38:04;;;;;;;2.90;2.63;;;;;;;;;;5002408;28;20467;-75
2021/03/16 14:40:29;;;;;;;2.90;2.20;;;;;;;;;;5018068;28;20273;-75